createdAt,value
2022-11-29T00:01:35.145Z,81.12
2022-11-29T00:04:05.184Z,81.72
2022-11-29T00:06:35.324Z,81.82
2022-11-29T00:09:06.331Z,82.25
2022-11-29T00:11:53.705Z,82.53
2022-11-29T00:14:22.757Z,82.55
2022-11-29T00:16:55.322Z,82.30
2022-11-29T00:19:24.791Z,82.97
2022-11-29T00:21:52.690Z,82.69
2022-11-29T00:24:24.794Z,83.22
2022-11-29T00:26:52.673Z,83.03
2022-11-29T00:29:20.679Z,83.27
2022-11-29T00:31:48.540Z,83.49
2022-11-29T00:34:16.565Z,84.27
2022-11-29T00:36:45.790Z,84.43
2022-11-29T00:39:14.224Z,83.93
2022-11-29T00:41:42.006Z,84.06
2022-11-29T00:44:13.992Z,83.40
2022-11-29T00:46:44.913Z,84.44
2022-11-29T00:49:12.747Z,83.51
2022-11-29T00:51:40.620Z,83.62
2022-11-29T00:54:10.018Z,83.27
2022-11-29T00:56:37.883Z,83.84
2022-11-29T00:59:05.744Z,84.13
2022-11-29T01:01:33.622Z,83.76
2022-11-29T01:04:01.797Z,83.98
2022-11-29T01:06:29.709Z,84.52
2022-11-29T01:08:57.656Z,84.43
2022-11-29T01:11:28.659Z,84.28
2022-11-29T01:13:59.250Z,84.39
2022-11-29T01:16:28.828Z,83.94
2022-11-29T01:18:57.215Z,84.20
2022-11-29T01:21:26.100Z,84.36
2022-11-29T01:23:54.923Z,83.98
2022-11-29T01:26:24.697Z,84.73
2022-11-29T01:28:55.814Z,83.88
2022-11-29T01:31:25.752Z,84.74
2022-11-29T01:33:55.327Z,84.80
2022-11-29T01:36:23.398Z,85.27
2022-11-29T01:38:51.784Z,84.78
2022-11-29T01:41:22.010Z,84.12
2022-11-29T01:44:00.383Z,84.38
2022-11-29T01:46:29.548Z,84.71
2022-11-29T01:49:02.844Z,84.48
2022-11-29T01:51:32.158Z,85.09
2022-11-29T01:54:00.520Z,84.95
2022-11-29T01:56:31.104Z,84.92
2022-11-29T01:59:02.435Z,84.88
2022-11-29T02:01:30.355Z,84.62
2022-11-29T02:03:58.290Z,85.00
2022-11-29T02:06:26.680Z,85.48
2022-11-29T02:08:55.778Z,85.04
2022-11-29T02:11:47.697Z,85.48
2022-11-29T02:14:39.767Z,84.96
2022-11-29T02:17:19.283Z,84.74
2022-11-29T02:20:22.964Z,85.19
2022-11-29T02:22:58.446Z,84.44
2022-11-29T02:25:43.526Z,84.58
2022-11-29T02:28:44.435Z,84.04
2022-11-29T02:31:42.214Z,84.77
2022-11-29T02:34:30.224Z,84.71
2022-11-29T02:37:28.543Z,84.39
2022-11-29T02:40:11.936Z,83.90
2022-11-29T02:43:03.896Z,84.89
2022-11-29T02:45:45.174Z,84.61
2022-11-29T02:48:30.935Z,84.62
2022-11-29T02:51:09.427Z,85.05
2022-11-29T02:53:40.638Z,84.65
2022-11-29T02:56:14.842Z,85.44
2022-11-29T02:58:50.264Z,84.80
2022-11-29T03:01:25.305Z,85.18
2022-11-29T03:04:01.209Z,85.44
2022-11-29T03:06:40.524Z,84.85
2022-11-29T03:09:17.144Z,84.57
2022-11-29T03:11:50.737Z,84.70
2022-11-29T03:14:25.219Z,84.44
2022-11-29T03:17:05.174Z,84.71
2022-11-29T03:19:48.012Z,84.55
2022-11-29T03:22:26.104Z,85.05
2022-11-29T03:25:01.204Z,84.65
2022-11-29T03:27:37.636Z,83.94
2022-11-29T03:30:08.796Z,84.16
2022-11-29T03:32:44.735Z,82.96
2022-11-29T03:35:17.935Z,82.81
2022-11-29T03:37:56.084Z,83.30
2022-11-29T03:40:30.775Z,82.98
2022-11-29T03:43:05.571Z,82.85
2022-11-29T03:45:37.781Z,82.88
2022-11-29T03:48:10.668Z,83.12
2022-11-29T03:50:43.324Z,83.42
2022-11-29T03:53:19.198Z,82.25
2022-11-29T03:55:55.105Z,82.31
2022-11-29T03:58:36.278Z,82.70
2022-11-29T04:01:42.709Z,83.07
2022-11-29T04:04:28.738Z,82.84
2022-11-29T04:07:08.934Z,83.57
2022-11-29T04:09:56.687Z,83.25
2022-11-29T04:12:46.422Z,83.43
2022-11-29T04:15:48.579Z,83.35
2022-11-29T04:18:47.901Z,83.90
2022-11-29T04:21:46.226Z,83.83
2022-11-29T04:24:34.935Z,83.25
2022-11-29T04:27:29.271Z,82.36
2022-11-29T04:30:07.495Z,83.08
2022-11-29T04:33:13.846Z,82.33
2022-11-29T04:36:00.900Z,82.11
2022-11-29T04:39:04.411Z,81.89
2022-11-29T04:41:56.238Z,82.09
2022-11-29T04:44:43.039Z,81.80
2022-11-29T04:47:28.756Z,81.86
2022-11-29T04:50:13.807Z,82.04
2022-11-29T04:53:09.877Z,81.72
2022-11-29T04:55:45.780Z,82.16
2022-11-29T04:58:22.692Z,83.00
2022-11-29T05:01:06.117Z,82.81
2022-11-29T05:03:39.832Z,82.92
2022-11-29T05:06:26.830Z,81.82
2022-11-29T05:09:04.098Z,82.02
2022-11-29T05:11:42.434Z,81.52
2022-11-29T05:14:21.031Z,81.34
2022-11-29T05:16:57.965Z,81.39
2022-11-29T05:20:13.720Z,82.52
2022-11-29T05:22:50.223Z,82.15
2022-11-29T05:25:35.695Z,82.93
2022-11-29T05:28:10.994Z,82.37
2022-11-29T05:31:02.347Z,82.22
2022-11-29T05:33:54.077Z,81.73
2022-11-29T05:36:29.414Z,83.29
2022-11-29T05:39:14.789Z,82.88
2022-11-29T05:41:58.785Z,83.40
2022-11-29T05:44:38.060Z,82.95
2022-11-29T05:47:10.009Z,83.86
2022-11-29T05:49:46.146Z,84.92
2022-11-29T05:52:22.945Z,84.54
2022-11-29T05:55:04.033Z,84.01
2022-11-29T05:57:42.721Z,84.29
2022-11-29T06:00:13.284Z,83.06
2022-11-29T06:02:52.510Z,82.92
2022-11-29T06:05:29.999Z,82.55
2022-11-29T06:08:06.258Z,83.24
2022-11-29T06:10:40.103Z,84.44
2022-11-29T06:13:21.924Z,84.19
2022-11-29T06:16:11.153Z,83.87
2022-11-29T06:19:09.263Z,83.69
2022-11-29T06:21:46.077Z,83.61
2022-11-29T06:24:36.075Z,83.71
2022-11-29T06:27:22.433Z,83.91
2022-11-29T06:29:57.863Z,83.95
2022-11-29T06:32:32.502Z,83.72
2022-11-29T06:35:05.275Z,83.67
2022-11-29T06:37:40.316Z,84.03
2022-11-29T06:40:12.598Z,83.50
2022-11-29T06:42:40.549Z,84.46
2022-11-29T06:45:11.589Z,84.35
2022-11-29T06:47:45.255Z,84.95
2022-11-29T06:50:31.310Z,83.92
2022-11-29T06:53:09.196Z,83.84
2022-11-29T06:55:48.689Z,84.57
2022-11-29T06:58:36.390Z,83.46
2022-11-29T07:01:11.873Z,83.02
2022-11-29T07:04:00.243Z,82.95
2022-11-29T07:06:30.603Z,82.51
2022-11-29T07:09:02.404Z,83.47
2022-11-29T07:11:31.192Z,83.20
2022-11-29T07:13:59.552Z,83.46
2022-11-29T07:16:32.143Z,83.67
2022-11-29T07:19:10.654Z,82.09
2022-11-29T07:21:54.062Z,82.64
2022-11-29T07:24:39.301Z,81.92
2022-11-29T07:27:17.411Z,82.56
2022-11-29T07:30:05.091Z,83.19
2022-11-29T07:32:51.373Z,82.44
2022-11-29T07:35:27.542Z,82.85
2022-11-29T07:38:08.210Z,83.45
2022-11-29T07:40:45.679Z,82.80
2022-11-29T07:43:26.237Z,81.66
2022-11-29T07:45:55.274Z,82.91
2022-11-29T07:48:28.215Z,82.60
2022-11-29T07:50:57.869Z,82.17
2022-11-29T07:53:25.859Z,83.24
2022-11-29T07:55:55.259Z,83.24
2022-11-29T07:58:23.475Z,82.25
2022-11-29T08:00:51.418Z,83.20
2022-11-29T08:03:21.984Z,83.34
2022-11-29T08:05:53.414Z,83.15
2022-11-29T08:08:21.257Z,82.49
2022-11-29T08:10:49.344Z,81.96
2022-11-29T08:13:20.456Z,83.09
2022-11-29T08:15:49.471Z,82.91
2022-11-29T08:18:17.623Z,82.10
2022-11-29T08:20:46.406Z,82.07
2022-11-29T08:23:15.291Z,82.69
2022-11-29T08:25:43.193Z,82.22
2022-11-29T08:28:11.335Z,81.24
2022-11-29T08:30:40.726Z,81.36
2022-11-29T08:33:08.922Z,81.58
2022-11-29T08:35:36.920Z,81.42
2022-11-29T08:38:05.269Z,82.69
2022-11-29T08:40:33.168Z,82.21
2022-11-29T08:43:00.986Z,81.51
2022-11-29T08:45:29.237Z,83.54
2022-11-29T08:47:58.573Z,82.36
2022-11-29T08:50:27.170Z,81.06
2022-11-29T08:53:12.432Z,80.89
2022-11-29T08:55:43.069Z,83.98
2022-11-29T08:58:13.624Z,81.77
2022-11-29T09:00:43.829Z,81.37
2022-11-29T09:03:30.755Z,81.95
2022-11-29T09:05:59.812Z,82.85
2022-11-29T09:08:28.965Z,81.73
2022-11-29T09:10:57.107Z,81.62
2022-11-29T09:13:24.986Z,81.98
2022-11-29T09:15:52.987Z,80.70
2022-11-29T09:18:25.124Z,80.52
2022-11-29T09:20:52.958Z,81.20
2022-11-29T09:23:21.453Z,80.65
2022-11-29T09:25:50.537Z,80.14
2022-11-29T09:28:18.594Z,79.90
2022-11-29T09:30:46.816Z,80.69
2022-11-29T09:33:20.254Z,79.63
2022-11-29T09:35:50.496Z,79.12
2022-11-29T09:38:18.748Z,80.23
2022-11-29T09:40:53.450Z,80.22
2022-11-29T09:43:30.663Z,80.64
2022-11-29T09:46:04.043Z,79.06
2022-11-29T09:49:00.211Z,79.74
2022-11-29T09:51:41.167Z,80.39
2022-11-29T09:54:29.449Z,81.09
2022-11-29T09:56:58.396Z,81.22
2022-11-29T09:59:30.096Z,81.23
2022-11-29T10:02:04.485Z,80.44
2022-11-29T10:04:37.458Z,79.75
2022-11-29T10:07:15.370Z,80.13
2022-11-29T10:09:47.777Z,80.90
2022-11-29T10:12:21.034Z,81.07
2022-11-29T10:14:55.615Z,80.84
2022-11-29T10:17:35.085Z,80.09
2022-11-29T10:20:07.353Z,80.86
2022-11-29T10:22:43.771Z,80.76
2022-11-29T10:25:21.268Z,80.76
2022-11-29T10:27:49.202Z,79.89
2022-11-29T10:30:17.664Z,80.86
2022-11-29T10:32:48.024Z,80.93
2022-11-29T10:35:18.353Z,80.93
2022-11-29T10:38:14.594Z,80.95
2022-11-29T10:40:40.843Z,79.50
2022-11-29T10:43:09.227Z,79.01
2022-11-29T10:45:44.387Z,79.69
2022-11-29T10:48:15.672Z,79.93
2022-11-29T10:50:45.569Z,79.18
2022-11-29T10:53:17.260Z,80.34
2022-11-29T10:55:50.275Z,80.46
2022-11-29T10:58:26.260Z,79.03
2022-11-29T11:00:57.758Z,79.04
2022-11-29T11:03:30.442Z,78.67
2022-11-29T11:06:01.342Z,78.02
2022-11-29T11:08:33.041Z,79.50
2022-11-29T11:11:02.394Z,79.19
2022-11-29T11:13:32.208Z,78.41
2022-11-29T11:16:10.303Z,78.93
2022-11-29T11:18:39.155Z,79.19
2022-11-29T11:21:10.616Z,78.45
2022-11-29T11:23:46.456Z,79.72
2022-11-29T11:26:15.965Z,79.59
2022-11-29T11:28:50.182Z,79.99
2022-11-29T11:31:28.907Z,78.41
2022-11-29T11:33:56.877Z,79.43
2022-11-29T11:36:27.293Z,78.70
2022-11-29T11:38:59.170Z,78.58
2022-11-29T11:41:44.729Z,78.41
2022-11-29T11:44:47.330Z,78.64
2022-11-29T11:47:21.512Z,78.01
2022-11-29T11:49:55.832Z,78.56
2022-11-29T11:52:26.175Z,78.11
2022-11-29T11:54:59.991Z,78.50
2022-11-29T11:57:29.722Z,78.78
2022-11-29T12:00:04.971Z,79.88
2022-11-29T12:02:39.338Z,80.32
2022-11-29T12:05:14.299Z,80.22
2022-11-29T12:10:41.377Z,80.77
2022-11-29T12:13:19.787Z,81.39
2022-11-29T12:15:50.853Z,82.51
2022-11-29T12:18:27.195Z,81.66
2022-11-29T12:20:59.363Z,81.43
2022-11-29T12:23:36.606Z,81.86
2022-11-29T12:26:13.636Z,82.11
2022-11-29T12:28:48.332Z,81.80
2022-11-29T12:31:34.302Z,81.54
2022-11-29T12:34:13.370Z,81.42
2022-11-29T12:36:51.439Z,81.86
2022-11-29T12:39:36.438Z,81.30
2022-11-29T12:42:14.912Z,81.95
2022-11-29T12:44:53.250Z,82.44
2022-11-29T12:47:39.075Z,81.63
2022-11-29T12:50:25.738Z,81.85
2022-11-29T12:53:03.298Z,81.47
2022-11-29T12:55:40.792Z,82.12
2022-11-29T12:58:16.552Z,81.49
2022-11-29T13:00:53.480Z,81.16
2022-11-29T13:03:27.289Z,80.97
2022-11-29T13:06:08.991Z,81.14
2022-11-29T13:08:58.124Z,82.10
2022-11-29T13:11:30.509Z,82.96
2022-11-29T13:14:40.811Z,82.40
2022-11-29T13:17:00.077Z,82.83
2022-11-29T13:19:35.505Z,82.64
2022-11-29T13:22:12.134Z,82.13
2022-11-29T13:24:44.284Z,82.38
2022-11-29T13:27:18.069Z,82.78
2022-11-29T13:29:48.057Z,81.67
2022-11-29T13:32:35.210Z,81.94
2022-11-29T13:35:08.468Z,82.98
2022-11-29T13:37:50.616Z,82.50
2022-11-29T13:40:34.060Z,83.03
2022-11-29T13:43:13.260Z,83.02
2022-11-29T13:45:49.428Z,83.98
2022-11-29T13:48:34.721Z,83.31
2022-11-29T13:51:28.011Z,83.59
2022-11-29T13:53:57.853Z,82.96
2022-11-29T13:56:29.739Z,83.89
2022-11-29T13:58:59.402Z,83.19
2022-11-29T14:01:29.516Z,83.31
2022-11-29T14:04:07.174Z,84.61
2022-11-29T14:06:36.776Z,83.96
2022-11-29T14:09:27.275Z,84.66
2022-11-29T14:12:02.979Z,84.25
2022-11-29T14:14:36.489Z,84.57
2022-11-29T14:17:07.277Z,84.73
2022-11-29T14:19:37.041Z,85.11
2022-11-29T14:22:22.518Z,83.99
2022-11-29T14:25:11.779Z,84.89
2022-11-29T14:27:57.347Z,84.57
2022-11-29T14:30:49.848Z,84.43
2022-11-29T14:33:53.263Z,84.85
2022-11-29T14:36:41.908Z,84.93
2022-11-29T14:39:28.916Z,84.99
2022-11-29T14:42:14.535Z,85.79
2022-11-29T14:44:48.023Z,86.14
2022-11-29T14:47:24.281Z,85.35
2022-11-29T14:49:56.747Z,85.46
2022-11-29T14:52:34.920Z,84.71
2022-11-29T14:55:10.263Z,85.15
2022-11-29T14:58:09.946Z,84.95
2022-11-29T15:00:56.269Z,84.62
2022-11-29T15:03:33.010Z,85.00
2022-11-29T15:06:10.976Z,85.74
2022-11-29T15:08:48.147Z,85.39
2022-11-29T15:11:25.295Z,84.94
2022-11-29T15:14:02.825Z,84.81
2022-11-29T15:16:45.295Z,84.81
2022-11-29T15:20:10.372Z,84.10
2022-11-29T15:22:47.530Z,85.40
2022-11-29T15:25:20.295Z,84.62
2022-11-29T15:27:54.946Z,83.91
2022-11-29T15:30:30.164Z,84.98
2022-11-29T15:32:58.701Z,84.64
2022-11-29T15:35:26.981Z,84.87
2022-11-29T15:37:56.818Z,85.10
2022-11-29T15:40:31.445Z,85.15
2022-11-29T15:43:05.135Z,84.38
2022-11-29T15:45:35.120Z,85.58
2022-11-29T15:48:15.374Z,84.90
2022-11-29T15:50:49.156Z,84.83
2022-11-29T15:53:24.496Z,84.71
2022-11-29T15:55:55.574Z,84.90
2022-11-29T15:58:24.709Z,84.94
2022-11-29T16:00:54.196Z,84.18
2022-11-29T16:03:26.555Z,84.81
2022-11-29T16:06:03.245Z,85.77
2022-11-29T16:08:35.942Z,84.21
2022-11-29T16:11:03.855Z,84.89
2022-11-29T16:13:38.597Z,84.09
2022-11-29T16:16:11.869Z,84.32
2022-11-29T16:18:42.354Z,84.23
2022-11-29T16:21:24.311Z,82.90
2022-11-29T16:23:54.733Z,83.37
2022-11-29T16:26:27.541Z,82.51
2022-11-29T16:28:57.991Z,82.80
2022-11-29T16:31:32.944Z,82.50
2022-11-29T16:34:08.143Z,83.22
2022-11-29T16:36:36.997Z,83.43
2022-11-29T16:39:17.148Z,83.97
2022-11-29T16:41:45.073Z,83.33
2022-11-29T16:45:03.260Z,83.44
2022-11-29T16:47:33.343Z,83.65
2022-11-29T16:50:19.452Z,83.84
2022-11-29T16:52:49.830Z,83.77
2022-11-29T16:55:23.078Z,83.80
2022-11-29T16:57:52.091Z,82.83
2022-11-29T17:00:29.893Z,83.94
2022-11-29T17:02:57.864Z,83.70
2022-11-29T17:05:25.985Z,83.44
2022-11-29T17:07:54.317Z,84.19
2022-11-29T17:10:26.409Z,84.44
2022-11-29T17:12:57.057Z,84.81
2022-11-29T17:15:25.373Z,84.38
2022-11-29T17:17:53.581Z,84.55
2022-11-29T17:20:21.557Z,85.15
2022-11-29T17:22:49.392Z,85.72
2022-11-29T17:25:17.515Z,85.01
2022-11-29T17:27:46.909Z,85.51
2022-11-29T17:30:15.656Z,86.24
2022-11-29T17:32:43.778Z,85.68
2022-11-29T17:35:11.774Z,87.78
2022-11-29T17:37:39.691Z,87.81
2022-11-29T17:40:09.024Z,86.81
2022-11-29T17:42:37.388Z,87.21
2022-11-29T17:45:07.393Z,86.97
2022-11-29T17:47:35.424Z,86.95
2022-11-29T17:50:03.685Z,86.59
2022-11-29T17:52:31.611Z,86.85
2022-11-29T17:54:59.461Z,86.82
2022-11-29T17:57:27.444Z,87.25
2022-11-29T17:59:55.408Z,87.00
2022-11-29T18:02:24.765Z,86.98
2022-11-29T18:04:53.293Z,87.78
2022-11-29T18:07:21.260Z,88.12
2022-11-29T18:09:49.331Z,88.15
2022-11-29T18:12:17.460Z,87.68
2022-11-29T18:14:45.701Z,88.42
2022-11-29T18:17:13.703Z,88.17
2022-11-29T18:19:43.497Z,88.66
2022-11-29T18:22:11.753Z,88.52
2022-11-29T18:24:43.652Z,87.66
2022-11-29T18:27:11.591Z,86.98
2022-11-29T18:29:39.564Z,86.95
2022-11-29T18:32:07.481Z,86.80
2022-11-29T18:34:35.371Z,86.87
2022-11-29T18:37:04.648Z,86.56
2022-11-29T18:39:32.722Z,86.19
2022-11-29T18:42:00.692Z,85.73
2022-11-29T18:44:33.255Z,85.12
2022-11-29T18:47:01.169Z,85.87
2022-11-29T18:49:29.071Z,86.15
2022-11-29T18:51:57.181Z,85.45
2022-11-29T18:54:26.419Z,85.01
2022-11-29T18:56:54.337Z,84.58
2022-11-29T18:59:23.142Z,85.26
2022-11-29T19:01:51.277Z,84.91
2022-11-29T19:04:21.143Z,84.84
2022-11-29T19:06:49.868Z,84.95
2022-11-29T19:09:20.878Z,85.40
2022-11-29T19:11:50.850Z,85.89
2022-11-29T19:14:19.310Z,86.76
2022-11-29T19:16:49.946Z,86.50
2022-11-29T19:19:18.985Z,85.50
2022-11-29T19:21:47.179Z,85.95
2022-11-29T19:24:17.718Z,86.28
2022-11-29T19:26:47.596Z,86.19
2022-11-29T19:29:17.586Z,85.55
2022-11-29T19:31:45.625Z,86.76
2022-11-29T19:34:13.574Z,87.16
2022-11-29T19:36:44.422Z,87.52
2022-11-29T19:39:14.666Z,87.30
2022-11-29T19:41:44.436Z,87.66
2022-11-29T19:44:12.853Z,88.12
2022-11-29T19:46:44.584Z,88.05
2022-11-29T19:49:13.159Z,86.32
2022-11-29T19:51:41.315Z,87.24
2022-11-29T19:54:10.817Z,86.64
2022-11-29T19:56:39.350Z,87.75
2022-11-29T19:59:07.856Z,87.25
2022-11-29T20:01:40.784Z,88.26
2022-11-29T20:04:13.099Z,88.49
2022-11-29T20:06:41.704Z,87.95
2022-11-29T20:09:09.820Z,88.06
2022-11-29T20:11:37.834Z,88.13
2022-11-29T20:14:07.144Z,87.40
2022-11-29T20:16:35.113Z,89.21
2022-11-29T20:19:02.943Z,88.33
2022-11-29T20:21:33.929Z,87.94
2022-11-29T20:24:03.300Z,88.45
2022-11-29T20:26:33.314Z,87.86
2022-11-29T20:29:02.049Z,88.07
2022-11-29T20:31:30.463Z,88.26
2022-11-29T20:33:58.820Z,88.26
2022-11-29T20:36:41.139Z,87.16
2022-11-29T20:39:21.851Z,87.01
2022-11-29T20:42:02.343Z,88.23
2022-11-29T20:44:38.782Z,88.15
2022-11-29T20:47:15.142Z,87.11
2022-11-29T20:49:43.425Z,87.81
2022-11-29T20:52:26.596Z,87.02
2022-11-29T20:54:54.422Z,86.96
2022-11-29T20:57:22.447Z,87.93
2022-11-29T20:59:50.362Z,87.71
2022-11-29T21:02:18.407Z,88.03
2022-11-29T21:04:46.445Z,88.61
2022-11-29T21:07:16.217Z,88.35
2022-11-29T21:09:44.453Z,87.94
2022-11-29T21:12:13.489Z,87.66
2022-11-29T21:14:41.934Z,87.25
2022-11-29T21:17:10.668Z,87.46
2022-11-29T21:19:39.365Z,87.61
2022-11-29T21:22:15.571Z,88.38
2022-11-29T21:24:54.737Z,87.53
2022-11-29T21:27:28.821Z,86.80
2022-11-29T21:29:57.581Z,87.03
2022-11-29T21:32:28.143Z,87.22
2022-11-29T21:34:56.032Z,87.38
2022-11-29T21:37:28.620Z,87.27
2022-11-29T21:39:58.380Z,87.96
2022-11-29T21:42:26.363Z,87.21
2022-11-29T21:44:54.215Z,87.74
2022-11-29T21:47:22.086Z,86.29
2022-11-29T21:49:52.376Z,86.26
2022-11-29T21:52:22.838Z,86.63
2022-11-29T21:54:51.515Z,87.20
2022-11-29T21:57:20.803Z,86.35
2022-11-29T21:59:48.673Z,87.43
2022-11-29T22:02:16.800Z,85.87
2022-11-29T22:04:45.314Z,86.05
2022-11-29T22:07:13.431Z,86.46
2022-11-29T22:09:41.438Z,86.31
2022-11-29T22:12:31.997Z,86.90
2022-11-29T22:14:58.526Z,87.59
2022-11-29T22:17:26.331Z,87.08
2022-11-29T22:19:54.226Z,88.08
2022-11-29T22:22:22.086Z,88.08
2022-11-29T22:24:50.249Z,87.83
2022-11-29T22:27:18.746Z,87.03
2022-11-29T22:29:46.650Z,87.78
2022-11-29T22:32:15.959Z,87.64
2022-11-29T22:34:44.062Z,88.08
2022-11-29T22:37:12.508Z,87.86
2022-11-29T22:39:40.399Z,86.58
2022-11-29T22:42:08.318Z,86.66
2022-11-29T22:44:36.569Z,86.19
2022-11-29T22:47:04.508Z,86.97
2022-11-29T22:49:34.228Z,86.41
2022-11-29T22:52:02.085Z,86.20
2022-11-29T22:54:29.916Z,86.63
2022-11-29T22:56:57.898Z,86.19
2022-11-29T22:59:25.743Z,86.09
2022-11-29T23:01:55.351Z,85.32
2022-11-29T23:04:23.151Z,85.77
2022-11-29T23:06:52.450Z,86.09
2022-11-29T23:09:22.732Z,85.51
2022-11-29T23:11:53.185Z,85.49
2022-11-29T23:14:22.099Z,85.60
2022-11-29T23:16:50.168Z,85.77
2022-11-29T23:19:18.490Z,86.19
2022-11-29T23:21:46.503Z,85.17
2022-11-29T23:24:16.263Z,86.56
2022-11-29T23:26:46.926Z,85.42
2022-11-29T23:29:17.129Z,85.32
2022-11-29T23:31:45.217Z,84.81
2022-11-29T23:34:13.474Z,85.44
2022-11-29T23:36:41.592Z,84.88
2022-11-29T23:39:09.495Z,84.13
2022-11-29T23:41:38.924Z,85.09
2022-11-29T23:44:08.715Z,84.07
2022-11-29T23:46:37.034Z,84.22
2022-11-29T23:49:05.310Z,82.94
2022-11-29T23:51:33.224Z,83.98
2022-11-29T23:54:01.503Z,84.47
2022-11-29T23:56:35.139Z,85.28
2022-11-29T23:59:04.906Z,84.55
